• Join FlightAware (Why Join?)
  • Login
  • US Flag 
05:56AM EDT


 

Airport Tracker/Info


-or-


 

Live Flight TrackerFlight Track Log ✈ SWA641 ✈ 17-Apr-2013 ✈ KSTL - KPHL

Flight Track Log - Related Links

Times and Time Zones

All times are in EDT time to prevent confusion due to time zone crossing. See the SWA641 flight status page for this flight to view local times or setup timezone preferences in your user account.

Time Position Orientation Groundspeed Altitude Reporting Facility
EDT Latitude Longitude Course Direction KTS MPH feet Rate Location/Type
01:19PM 38.7300 -90.2728 98° East 152 175 1,700  Level FAA TRACON SMA TRACON (SMA)
01:20PM 38.7278 -90.2533 98° East 172 198 2,100 1,800 Climbing FAA TRACON SMA TRACON (SMA)
01:20PM 38.7247 -90.2242 98° East 209 241 2,900 2,400 Climbing FAA TRACON SMA TRACON (SMA)
01:20PM 38.7214 -90.1994 100° East 226 260 3,700 1,920 Climbing FAA TRACON SMA TRACON (SMA)
01:21PM 38.7208 -90.1711 91° East 249 287 4,200 2,400 Climbing FAA TRACON SMA TRACON (SMA)
01:21PM 38.7214 -90.1322 89° East 281 323 5,300 3,120 Climbing FAA TRACON SMA TRACON (SMA)
01:21PM 38.7250 -90.0997 82° East 296 341 6,300 3,360 Climbing FAA TRACON SMA TRACON (SMA)
01:22PM 38.7283 -90.0664 83° East 307 353 7,600 4,320 Climbing FAA TRACON SMA TRACON (SMA)
01:22PM 38.7319 -90.0239 84° East 313 360 9,200 4,440 Climbing FAA TRACON SMA TRACON (SMA)
01:22PM 38.7358 -89.9889 82° East 319 367 10,500 3,480 Climbing FAA TRACON SMA TRACON (SMA)
01:23PM 38.7403 -89.9444 83° East 327 376 11,600 3,120 Climbing FAA TRACON SMA TRACON (SMA)
01:23PM 38.7442 -89.9061 83° East 346 398 12,600 3,360 Climbing FAA TRACON SMA TRACON (SMA)
01:23PM 38.7481 -89.8672 83° East 358 412 13,800 3,600 Climbing FAA TRACON SMA TRACON (SMA)
01:24PM 38.7531 -89.8175 83° East 367 422 15,100 3,420 Climbing FAA TRACON SMA TRACON (SMA)
01:24PM 38.7578 -89.7758 82° East 378 435 16,100 3,060 Climbing FAA TRACON SMA TRACON (SMA)
01:24PM 38.7617 -89.7342 83° East 385 443 17,100 3,360 Climbing FAA TRACON SMA TRACON (SMA)
01:25PM 38.7675 -89.6803 82° East 394 453 18,400 3,360 Climbing FAA TRACON SMA TRACON (SMA)
01:25PM 38.7714 -89.6364 84° East 401 461 19,400 2,880 Climbing FAA TRACON SMA TRACON (SMA)
01:25PM 38.7767 -89.5922 81° East 408 470 20,300 2,760 Climbing FAA TRACON SMA TRACON (SMA)
01:26PM 38.7806 -89.5469 84° East 413 475 21,200 3,120 Climbing FAA TRACON SMA TRACON (SMA)
01:26PM 38.7864 -89.4897 83° East 420 483 22,400 3,120 Climbing FAA TRACON SMA TRACON (SMA)
01:26PM 38.7919 -89.4436 81° East 424 488 23,300 2,520 Climbing FAA TRACON SMA TRACON (SMA)
01:27PM 38.7967 -89.3972 83° East 427 491 24,100 2,700 Climbing FAA TRACON SMA TRACON (SMA)
01:27PM 38.8061 -89.3383 78° East 437 503 25,100 2,580 Climbing FAA TRACON SMA TRACON (SMA)
01:27PM 38.8114 -89.2903 82° East 442 509 25,900 2,340 Climbing FAA TRACON SMA TRACON (SMA)
01:28PM 38.8194 -89.2297 80° East 446 513 26,800 2,280 Climbing FAA TRACON SMA TRACON (SMA)
01:28PM 38.8256 -89.1808 81° East 452 520 27,500 2,340 Climbing FAA TRACON SMA TRACON (SMA)
01:28PM 38.8336 -89.1319 78° East 456 525 28,300 2,220 Climbing FAA TRACON SMA TRACON (SMA)
01:29PM 38.8403 -89.0822 80° East 458 527 28,900 1,200 Climbing FAA TRACON SMA TRACON (SMA)
01:29PM 38.8428 -89.0700 75° East 459 528 29,100 240 Climbing FAA TRACON SMA TRACON (SMA)
01:29PM 38.8428 -89.0700 180° South 459 528 29,100 2,280 Level FAA TRACON SMA TRACON (SMA)
01:30PM 38.8667 -88.9286 78° East 468 539 31,500 2,700 Climbing Kansas City Center
01:31PM 38.8908 -88.7600 80° East 479 551 33,700 1,680 Climbing Kansas City Center
01:32PM 38.9108 -88.5831 82° East 468 539 35,000 600 Climbing Kansas City Center
01:33PM 38.9375 -88.4236 78° East 457 526 35,000  Level Kansas City Center
01:34PM 38.9711 -88.3003 71° East 459 528 35,000  Level Indianapolis Center
01:35PM 39.0139 -88.1456 70° East 460 529 35,000 480 Level Indianapolis Center
01:36PM 39.0519 -87.9883 73° East 459 528 36,100 1,200 Climbing Indianapolis Center
01:37PM 39.0786 -87.8264 78° East 460 529 37,600 900 Climbing Indianapolis Center
01:38PM 39.1133 -87.6314 77° East 462 532 38,000 300 Climbing Indianapolis Center
01:39PM 39.1428 -87.4656 77° East 468 539 38,300 720 Climbing Indianapolis Center
01:40PM 39.1717 -87.3006 77° East 469 540 39,500 960 Climbing Indianapolis Center
01:41PM 39.2006 -87.1356 77° East 468 539 40,300 540 Climbing Indianapolis Center
01:42PM 39.2300 -86.9650 77° East 480 552 40,700 300 Climbing Indianapolis Center
01:43PM 39.2600 -86.7875 78° East 497 572 41,000 120 Climbing Indianapolis Center
01:44PM 39.2903 -86.6086 78° East 504 580 41,000  Level Indianapolis Center
01:45PM 39.3194 -86.4308 78° East 504 580 41,000  Level Indianapolis Center
01:46PM 39.3478 -86.2533 78° East 501 577 41,000  Level Indianapolis Center
01:47PM 39.3775 -86.0764 78° East 502 578 41,000  Level Indianapolis Center
01:48PM 39.4108 -85.8664 78° East 497 572 41,000  Level Indianapolis Center
01:49PM 39.4408 -85.6906 77° East 498 573 41,000  Level Indianapolis Center
01:50PM 39.4689 -85.5158 78° East 501 577 41,000  Level Indianapolis Center
01:51PM 39.4956 -85.3372 79° East 503 579 41,000  Level Indianapolis Center
01:52PM 39.5228 -85.1572 79° East 507 583 41,000  Level Indianapolis Center
01:53PM 39.5519 -84.9769 78° East 508 585 41,000  Level Indianapolis Center
01:54PM 39.5786 -84.7956 79° East 510 587 41,000  Level Indianapolis Center
01:56PM 39.6061 -84.6114 79° East 514 592 41,000  Level Indianapolis Center
01:57PM 39.6383 -84.3978 79° East 514 592 41,000  Level Indianapolis Center
01:58PM 39.6647 -84.2136 79° East 516 594 41,000  Level Indianapolis Center
01:59PM 39.6914 -84.0303 79° East 513 590 41,000  Level Indianapolis Center
02:00PM 39.7175 -83.8503 79° East 507 583 41,000  Level Indianapolis Center
02:01PM 39.7411 -83.6706 80° East 504 580 41,000  Level Indianapolis Center
02:02PM 39.7717 -83.4719 79° East 509 586 41,000  Level Indianapolis Center
02:03PM 39.7967 -83.2853 80° East 510 587 41,000  Level Indianapolis Center
02:04PM 39.8211 -83.1044 80° East 507 583 41,000  Level Indianapolis Center
02:05PM 39.8456 -82.9225 80° East 508 585 41,000  Level Indianapolis Center
02:06PM 39.8700 -82.7397 80° East 510 587 41,000  Level Indianapolis Center
02:07PM 39.8944 -82.5583 80° East 506 582 41,000  Level Indianapolis Center
02:08PM 39.9181 -82.3761 80° East 506 582 41,000  Level Indianapolis Center
02:09PM 39.9406 -82.1933 81° East 506 582 41,000  Level Indianapolis Center
02:10PM 39.9644 -82.0114 80° East 506 582 41,000  Level Indianapolis Center
02:11PM 39.9892 -81.8025 81° East 498 573 41,000  Level Indianapolis Center
02:12PM 40.0089 -81.6453 81° East 495 570 41,000  Level Indianapolis Center
02:13PM 40.0294 -81.4681 81° East 492 566 41,000  Level Indianapolis Center
02:14PM 40.0511 -81.2911 81° East 491 565 41,000  Level Indianapolis Center
02:15PM 40.0753 -81.0850 81° East 491 565 41,000  Level Indianapolis Center
02:15PM 40.0828 -81.0469 76° East 486 559 41,000  Level Cleveland Center
02:16PM 40.1022 -80.8736 82° East 486 559 41,000  Level Cleveland Center
02:17PM 40.1233 -80.6997 81° East 486 559 41,000  Level Cleveland Center
02:18PM 40.1422 -80.5233 82° East 486 559 41,000  Level Cleveland Center
02:19PM 40.1608 -80.3467 82° East 486 559 41,000  Level Cleveland Center
02:20PM 40.1811 -80.1511 82° East 486 559 41,000  Level Cleveland Center
02:21PM 40.2011 -79.9742 82° East 489 563 41,000  Level Cleveland Center
02:22PM 40.2208 -79.7972 82° East 489 563 41,000  Level Cleveland Center
02:23PM 40.2383 -79.6231 82° East 489 563 41,000  Level Cleveland Center
02:24PM 40.2575 -79.4431 82° East 484 557 41,000  Level Cleveland Center
02:25PM 40.2703 -79.2878 84° East 484 557 41,000 -420 Level Cleveland Center
02:26PM 40.2908 -79.0914 82° East 484 557 40,200 -1,560 Descending Cleveland Center
02:27PM 40.3094 -78.9194 82° East 484 557 37,900 -2,460 Descending Cleveland Center
02:28PM 40.3150 -78.7425 88° East 479 551 35,300 -2,460 Descending Cleveland Center
02:30PM 40.3144 -78.4128 90° East 509 586 30,700 -3,540 Descending New York Center
02:31PM 40.3128 -78.2408 91° East 503 579 25,000 -2,220 Descending New York Center
02:32PM 40.3125 -78.0775 90° East 475 547 26,400  Climbing New York Center
02:33PM 40.3139 -77.9197 89° East 450 518 25,000 -900 Descending New York Center
02:34PM 40.3411 -77.7808 76° East 413 475 24,600 -660 Descending New York Center
02:35PM 40.3717 -77.6475 73° East 396 456 23,700 -1,020 Descending New York Center
02:36PM 40.3131 -77.5464 127° Southeast 333 383 22,600 -1,140 Descending New York Center
02:37PM 40.2419 -77.4389 131° Southeast 335 386 21,500 -1,080 Descending New York Center
02:38PM 40.2408 -77.3083 91° East 340 391 20,500 -960 Descending New York Center
02:39PM 40.2264 -77.1925 99° East 345 397 19,600 -960 Descending New York Center
02:40PM 40.2125 -77.0661 98° East 351 404 18,600 -960 Descending New York Center
02:41PM 40.1967 -76.9289 99° East 351 404 17,800 -900 Descending New York Center
02:42PM 40.1836 -76.8164 99° East 351 404 16,900 -960 Descending New York Center
02:43PM 40.1692 -76.6928 99° East 346 398 15,900 -1,080 Descending New York Center
02:44PM 40.1528 -76.5583 99° East 341 392 14,800 -1,080 Descending New York Center
02:45PM 40.1378 -76.4375 99° East 336 387 13,800 -1,080 Descending New York Center
02:46PM 40.1292 -76.3478 97° East 332 382 13,000 -960 Descending FAA TRACON SMA TRACON (SMA)
02:46PM 40.1214 -76.3114 106° East 331 381 12,800 -900 Descending FAA TRACON SMA TRACON (SMA)
02:47PM 40.1175 -76.2750 98° East 331 381 12,400 -1,080 Descending FAA TRACON SMA TRACON (SMA)
02:47PM 40.1150 -76.2381 95° East 329 379 12,100 -900 Descending FAA TRACON SMA TRACON (SMA)
02:47PM 40.1128 -76.1939 94° East 331 381 11,800 -1,080 Descending FAA TRACON SMA TRACON (SMA)
02:48PM 40.1103 -76.1561 95° East 327 376 11,400 -1,080 Descending FAA TRACON SMA TRACON (SMA)
02:48PM 40.1081 -76.1206 95° East 324 373 11,100 -1,080 Descending FAA TRACON SMA TRACON (SMA)
02:48PM 40.1047 -76.0775 96° East 321 369 10,700 -1,080 Descending FAA TRACON SMA TRACON (SMA)
02:49PM 40.1031 -76.0419 93° East 315 362 10,400 -1,080 Descending FAA TRACON SMA TRACON (SMA)
02:49PM 40.1000 -76.0000 95° East 307 353 10,000 -1,080 Descending FAA TRACON SMA TRACON (SMA)
02:49PM 40.0981 -75.9681 95° East 305 351 9,700 -900 Descending FAA TRACON SMA TRACON (SMA)
02:50PM 40.0967 -75.9333 93° East 302 348 9,400 -1,080 Descending FAA TRACON SMA TRACON (SMA)
02:50PM 40.0928 -75.8917 97° East 300 345 9,000 -1,080 Descending FAA TRACON SMA TRACON (SMA)
02:50PM 40.0903 -75.8589 96° East 298 343 8,700 -900 Descending FAA TRACON SMA TRACON (SMA)
02:51PM 40.0878 -75.8264 96° East 295 339 8,400 -900 Descending FAA TRACON SMA TRACON (SMA)
02:51PM 40.0853 -75.7919 95° East 294 338 8,100 -600 Descending FAA TRACON SMA TRACON (SMA)
02:51PM 40.0825 -75.7531 95° East 293 337 8,000 -1,140 Descending FAA TRACON SMA TRACON (SMA)
02:52PM 40.0786 -75.6808 94° East 289 333 7,000 -1,440 Descending FAA TRACON SMA TRACON (SMA)
02:52PM 40.0775 -75.6494 93° East 285 328 6,600 -1,200 Descending FAA TRACON SMA TRACON (SMA)
02:53PM 40.0764 -75.6172 93° East 284 327 6,200 -900 Descending FAA TRACON SMA TRACON (SMA)
02:53PM 40.0747 -75.5797 93° East 282 325 6,000 -300 Descending FAA TRACON SMA TRACON (SMA)
02:53PM 40.0725 -75.5475 95° East 280 322 6,000  Level FAA TRACON SMA TRACON (SMA)
02:54PM 40.0711 -75.5169 93° East 276 318 6,000  Level FAA TRACON SMA TRACON (SMA)
02:54PM 40.0692 -75.4797 94° East 276 318 6,000  Level FAA TRACON SMA TRACON (SMA)
02:54PM 40.0675 -75.4497 94° East 277 319 6,000  Level FAA TRACON SMA TRACON (SMA)
02:55PM 40.0547 -75.4219 121° Southeast 278 320 6,000  Level FAA TRACON SMA TRACON (SMA)
02:55PM 40.0342 -75.4100 156° South 268 308 6,000  Level FAA TRACON SMA TRACON (SMA)
02:55PM 40.0069 -75.4017 167° South 265 305 6,000  Level FAA TRACON SMA TRACON (SMA)
02:56PM 39.9803 -75.3939 167° South 250 288 6,000  Level FAA TRACON SMA TRACON (SMA)
02:56PM 39.9611 -75.3889 169° South 238 274 6,000  Level FAA TRACON SMA TRACON (SMA)
02:56PM 39.9417 -75.3956 195° South 215 247 6,000  Level FAA TRACON SMA TRACON (SMA)
02:57PM 39.9294 -75.4128 227° Southwest 214 246 6,000  Level FAA TRACON SMA TRACON (SMA)
02:57PM 39.9236 -75.4336 250° West 193 222 6,000 -180 Level FAA TRACON SMA TRACON (SMA)
02:57PM 39.9186 -75.4558 254° West 181 208 5,900 -480 Descending FAA TRACON SMA TRACON (SMA)
02:58PM 39.9131 -75.4797 253° West 174 200 5,700 -780 Descending FAA TRACON SMA TRACON (SMA)
02:58PM 39.9083 -75.4983 252° West 172 198 5,400 -900 Descending FAA TRACON SMA TRACON (SMA)
02:58PM 39.9039 -75.5167 252° West 172 198 5,100 -600 Descending FAA TRACON SMA TRACON (SMA)
02:59PM 39.8997 -75.5364 255° West 172 198 5,000 -180 Descending FAA TRACON SMA TRACON (SMA)
02:59PM 39.8961 -75.5553 256° West 173 199 5,000 -480 Level FAA TRACON SMA TRACON (SMA)
02:59PM 39.8817 -75.5706 219° Southwest 190 219 4,700 -780 Descending FAA TRACON SMA TRACON (SMA)
03:00PM 39.8664 -75.5769 198° South 195 224 4,500 -780 Descending FAA TRACON SMA TRACON (SMA)
03:00PM 39.8456 -75.5772 181° South 179 206 4,200 -900 Descending FAA TRACON SMA TRACON (SMA)
03:00PM 39.8303 -75.5692 158° South 192 221 3,900 -780 Descending FAA TRACON SMA TRACON (SMA)
03:01PM 39.8231 -75.5508 117° Southeast 195 224 3,700 -900 Descending FAA TRACON SMA TRACON (SMA)
03:01PM 39.8167 -75.5250 108° East 185 213 3,300 -900 Descending FAA TRACON SMA TRACON (SMA)
03:01PM 39.8156 -75.5056 94° East 190 219 3,100 -480 Descending FAA TRACON SMA TRACON (SMA)
03:02PM 39.8186 -75.4850 79° East 182 209 3,000 -300 Descending FAA TRACON SMA TRACON (SMA)
03:02PM 39.8239 -75.4600 75° East 188 216 2,900 -660 Descending FAA TRACON SMA TRACON (SMA)
03:02PM 39.8278 -75.4397 76° East 188 216 2,600 -900 Descending FAA TRACON SMA TRACON (SMA)
03:03PM 39.8319 -75.4194 75° East 188 216 2,300 -1,080 Descending FAA TRACON SMA TRACON (SMA)
03:03PM 39.8364 -75.3967 76° East 185 213 1,900 -1,080 Descending FAA TRACON SMA TRACON (SMA)
03:03PM 39.8397 -75.3764 78° East 181 208 1,600 -780 Descending FAA TRACON SMA TRACON (SMA)
03:04PM 39.8442 -75.3583 72° East 168 193 1,400 -780 Descending FAA TRACON SMA TRACON (SMA)
03:04PM 39.8478 -75.3397 76° East 143 165 1,100 -780 Descending FAA TRACON SMA TRACON (SMA)
03:04PM 39.8508 -75.3253 75° East 137 158 900 -780 Descending FAA TRACON SMA TRACON (SMA)
03:05PM 39.8539 -75.3103 75° East 137 158 600 -780 Descending FAA TRACON SMA TRACON (SMA)
03:05PM 39.8572 -75.2928 76° East 132 152 400 -780 Descending FAA TRACON SMA TRACON (SMA)
03:05PM 39.8603 -75.2789 74° East 130 150 100 -300 Descending FAA TRACON SMA TRACON (SMA)
03:06PM 39.8603 -75.2789 159° South 130 150 100  Level FAA TRACON SMA TRACON (SMA)
03:08PM 39.8722 -75.2409 68° East  Level Estimated